General Francisco Javier Mina International Airport
MMTM : now visible

Airfield :











YOU CAN JOIN US ON...

 
LOGIN :

Register | Disclaimer

   EN    FR    IT 

 









Legend :    VFR   Marginal VFR   IFR   Intensive IFR   Very Intensive IFR
Visi :
Ceiling :
>= 8 km
>= 3000ft
5 to 8 km
1000 to 3000 ft
1500m to 5 km
500 to 1000 ft
800 to 1500m
200 to 500 ft
< 800m
< 200 ft
Symbols :   Thunderstorms  Fog  Heavy snow  Heavy precipitations  Wind > 20 kt






- Airport Elevation : 80 ft
- IATA code : TAM


MMTM - General Francisco Javier Mina International

CURRENT METAR :
  • 170346Z 00000KT 6SM SCT200 22/22 A2997 RMK 8/008 BR HZ

EXPIRED METARs :
  • 170246Z 00000KT 6SM SCT200 22/21 A2996 RMK SLP147 52030 980 8/008 BR HZ
  • 170141Z 00000KT 6SM SCT200 22/21 A2995 RMK 8/008 HZY

TAF TAF MMTM
Valid from the 16 at 18:00 until the 17 at 18:00 UTC


161626Z 1618/1718 12010KT 5SM HZ SCT020 SCT100
FM162100 14015KT P6SM BKN020
FM170300 00000KT 4SM HZ OVC010
FM171000 00000KT 3SM BR OVC010
FM171500 18010KT 4SM HZ SCT010 SCT070



MET'MAP, your aeronautical weather chart ! - Copyright ORBIFLY December 2007 - Disclaimer

ORBIFLY MET'MAP TEAM :

Programming & Development : Alexandra Zaïnal
Concept & original design : Baudouin d'Aumeries
Assistance for programming : Marc-Olivier Méhu
Technical & hardware support : Manuel Goepfert

Contact : metmap@orbifly.com




SOURCES & CREDITS :

   NOAA       Earth
Advisory